Ames, Oklahoma
Current Conditions -  °F | °C
As of 9:55 AM on Monday 24 Nov 2014 (Local Time) from KEND Reporting Station
Few Clouds Few Clouds  
Wind Chill: 37°   Ceiling: Unl
Heat Index: 45°   Visibility: 10mi
Dew Point: 27°   Wind: 17mph
Humidity: 49%   Direction: 290°WNW
Pressure: 29.94"   Gusts: 26mph
Location:  36.25°N, 98.19°W
Report Text: KEND 241555Z 29015G23KT 10SM FEW120 07/M03 A2994 RMK AO2A SLP145
Loading
Personal Weather Stations






























Interactive Weather Map New forecast layout! Learn more

10-Day Weather Forecast

Advertisements
Track Severe Weather on mobile